Time;durP1;ratioP1;P1;durP2;ratioP2;P2;SDS_P1;SDS_P2;PMS_P1;PMS_P2;Temp;Humidity;BMP_temperature;BMP_pressure;BME280_temperature;BME280_humidity;BME280_pressure;Samples;Min_cycle;Max_cycle;Signal;HPM_P1;HPM_P2
2023/06/02 00:01:43;;;;;;;16.58;13.27;;;;;;;15.39;94.28;97494.19;10323093;28;20112;-52
2023/06/02 00:06:45;;;;;;;19.98;14.40;;;;;;;15.43;93.95;97494.03;10324208;28;20144;-51
2023/06/02 00:11:44;;;;;;;18.35;14.05;;;;;;;15.43;93.90;97486.19;10325240;28;20069;-52
2023/06/02 00:16:45;;;;;;;15.05;12.00;;;;;;;15.44;94.18;97484.47;10325159;28;20129;-51
2023/06/02 00:21:45;;;;;;;15.80;11.88;;;;;;;15.43;93.94;97487.94;10325136;28;20522;-51
2023/06/02 00:26:44;;;;;;;16.60;11.68;;;;;;;15.44;94.06;97479.22;10324890;28;20075;-49
2023/06/02 00:31:43;;;;;;;17.88;12.55;;;;;;;15.44;93.60;97479.22;10324397;28;20068;-52
2023/06/02 00:36:42;;;;;;;20.17;13.35;;;;;;;15.45;93.70;97480.94;10324675;28;20075;-52
2023/06/02 00:41:41;;;;;;;18.15;14.50;;;;;;;15.45;94.16;97487.00;10324473;28;20370;-51
2023/06/02 00:46:40;;;;;;;17.63;14.15;;;;;;;15.41;94.01;97474.06;10323829;28;20124;-52
2023/06/02 00:51:41;;;;;;;17.75;15.00;;;;;;;15.43;94.54;97472.25;10324051;28;20033;-49
2023/06/02 00:56:42;;;;;;;18.77;15.30;;;;;;;15.46;94.51;97475.66;10325016;28;20069;-51
2023/06/02 01:01:42;;;;;;;25.08;16.30;;;;;;;15.41;94.93;97480.16;10332016;28;20124;-50
2023/06/02 01:06:42;;;;;;;20.83;15.80;;;;;;;15.42;94.71;97475.78;10330920;28;20073;-51
2023/06/02 01:11:41;;;;;;;20.42;16.70;;;;;;;15.43;94.82;97486.19;10331342;28;20128;-49
2023/06/02 01:16:44;;;;;;;26.35;15.05;;;;;;;15.43;94.60;97477.50;10330590;28;20048;-51
2023/06/02 01:21:57;;;;;;;20.25;14.05;;;;;;;15.40;94.49;97472.34;10330640;28;20104;-52
2023/06/02 01:26:56;;;;;;;17.95;12.55;;;;;;;15.27;94.82;97466.53;10330255;28;20116;-51
2023/06/02 01:31:57;;;;;;;17.90;13.13;;;;;;;15.28;94.96;97473.50;10329857;28;20071;-49
2023/06/02 01:36:58;;;;;;;18.15;13.73;;;;;;;15.23;95.10;97459.69;10329802;28;20087;-51
2023/06/02 01:42:00;;;;;;;18.73;14.65;;;;;;;15.18;95.43;97461.56;10329340;28;20500;-50
2023/06/02 01:46:59;;;;;;;24.15;16.27;;;;;;;15.10;95.94;97453.88;10329668;28;20076;-52
2023/06/02 01:51:58;;;;;;;23.15;17.08;;;;;;;15.07;96.15;97448.75;10329825;28;20152;-50
2023/06/02 01:56:57;;;;;;;24.90;16.60;;;;;;;15.09;96.69;97451.34;10329287;28;20109;-51
2023/06/02 02:01:56;;;;;;;29.10;18.02;;;;;;;15.05;96.78;97445.31;10329866;28;20151;-52
2023/06/02 02:06:55;;;;;;;23.08;17.25;;;;;;;15.08;96.58;97440.00;10327506;28;20112;-50
2023/06/02 02:11:54;;;;;;;25.33;18.10;;;;;;;15.08;96.83;97437.38;10327329;28;20112;-51
2023/06/02 02:16:54;;;;;;;23.55;18.67;;;;;;;15.10;96.87;97443.44;10327742;28;20033;-52
2023/06/02 02:21:53;;;;;;;22.38;17.42;;;;;;;14.43;96.61;97335.28;10327628;28;20511;-49
2023/06/02 02:26:52;;;;;;;26.52;19.65;;;;;;;15.12;96.68;97446.03;10327050;28;20104;-52
2023/06/02 02:31:51;;;;;;;;;;;;;;;15.10;96.50;97440.81;10327303;28;20479;-51
2023/06/02 02:36:50;;;;;;;28.83;18.10;;;;;;;15.04;96.96;97446.22;10326880;28;20007;-51
2023/06/02 02:41:49;;;;;;;28.10;17.75;;;;;;;15.08;96.79;97437.38;10326388;28;20099;-51
2023/06/02 02:46:48;;;;;;;25.67;18.52;;;;;;;15.04;96.67;97435.75;10327167;28;20128;-51
2023/06/02 02:51:47;;;;;;;25.70;16.10;;;;;;;14.97;96.81;97440.28;10326006;28;20041;-51
2023/06/02 02:56:46;;;;;;;;;;;;;;;14.99;96.15;97437.59;10327252;28;20549;-51
2023/06/02 03:01:46;;;;;;;28.80;18.80;;;;;;;15.00;96.37;97441.94;10325336;28;20399;-51
2023/06/02 03:06:47;;;;;;;24.35;18.13;;;;;;;14.99;96.26;97438.47;10324565;28;20112;-50
2023/06/02 03:11:46;;;;;;;28.02;18.00;;;;;;;15.02;95.82;97432.31;10325712;28;20532;-51
2023/06/02 03:16:45;;;;;;;25.63;19.60;;;;;;;14.83;96.30;97422.31;10326220;28;20009;-52
2023/06/02 03:21:44;;;;;;;34.42;18.50;;;;;;;14.92;96.24;97422.97;10325733;28;20491;-51
2023/06/02 03:26:44;;;;;;;28.42;17.05;;;;;;;15.06;96.40;97441.81;10326048;28;20065;-52
2023/06/02 03:31:43;;;;;;;20.20;14.55;;;;;;;15.15;96.57;97441.56;10324539;28;20109;-53
2023/06/02 03:36:42;;;;;;;19.52;14.10;;;;;;;15.25;95.85;97448.31;10325004;28;20108;-52
2023/06/02 03:41:41;;;;;;;18.60;14.52;;;;;;;15.25;96.03;97444.84;10324870;28;20039;-51
2023/06/02 03:46:40;;;;;;;;;;;;;;;15.36;96.06;97441.94;10325311;28;20038;-52
2023/06/02 03:51:42;;;;;;;17.30;14.50;;;;;;;15.48;95.30;97430.31;10325509;28;19936;-52
2023/06/02 03:56:42;;;;;;;20.83;16.73;;;;;;;15.57;95.16;97433.53;10323825;28;20644;-52
2023/06/02 04:01:42;;;;;;;22.05;17.17;;;;;;;15.66;94.73;97435.06;10325445;28;20837;-51
2023/06/02 04:06:44;;;;;;;24.63;18.08;;;;;;;15.81;94.73;97436.44;10323888;28;20080;-52
2023/06/02 04:11:42;;;;;;;23.17;16.33;;;;;;;15.99;94.44;97429.84;10323627;28;20578;-51
2023/06/02 04:16:41;;;;;;;23.30;16.88;;;;;;;16.15;93.35;97435.50;10325809;28;20563;-52
2023/06/02 04:21:40;;;;;;;21.30;15.38;;;;;;;16.34;93.23;97433.22;10325279;28;20496;-54
2023/06/02 04:26:39;;;;;;;18.25;14.32;;;;;;;16.55;91.35;97437.81;10324369;28;20341;-53
2023/06/02 04:31:39;;;;;;;18.25;15.05;;;;;;;16.38;90.67;97438.31;10324011;28;20128;-53
2023/06/02 04:36:39;;;;;;;21.38;15.77;;;;;;;16.38;91.05;97433.09;10331727;28;20113;-53
2023/06/02 04:41:38;;;;;;;17.80;13.30;;;;;;;16.26;91.80;97433.44;10330709;28;20120;-52
2023/06/02 04:46:37;;;;;;;18.55;13.85;;;;;;;15.80;92.80;97398.09;10331979;28;20053;-54
2023/06/02 04:51:37;;;;;;;21.45;16.75;;;;;;;15.90;93.44;97441.41;10333617;28;20503;-53
2023/06/02 04:56:38;;;;;;;27.27;19.70;;;;;;;15.76;94.29;97435.66;10331376;28;20156;-53
2023/06/02 05:01:37;;;;;;;28.08;19.35;;;;;;;15.62;94.49;97421.22;10331646;28;20104;-53
2023/06/02 05:06:36;;;;;;;24.13;19.60;;;;;;;15.86;94.08;97442.44;10332170;28;20072;-51
2023/06/02 05:11:35;;;;;;;23.02;18.33;;;;;;;15.98;94.30;97438.59;10331112;28;20438;-53
2023/06/02 05:16:35;;;;;;;23.42;18.58;;;;;;;16.13;93.41;97447.78;10331273;28;20090;-52
2023/06/02 05:21:34;;;;;;;26.80;17.90;;;;;;;16.08;93.65;97429.59;10330955;28;20084;-53
2023/06/02 05:26:33;;;;;;;22.65;18.48;;;;;;;16.23;93.84;97451.84;10330121;28;20116;-52
2023/06/02 05:31:32;;;;;;;22.02;16.98;;;;;;;16.42;93.76;97439.06;10330622;28;20076;-53
2023/06/02 05:36:31;;;;;;;19.98;16.85;;;;;;;16.65;92.59;97435.78;10329824;28;20033;-51
2023/06/02 05:41:30;;;;;;;20.27;15.80;;;;;;;16.77;91.66;97445.91;10329451;28;20136;-51
2023/06/02 05:46:29;;;;;;;22.70;15.30;;;;;;;16.88;89.92;97438.56;10329031;28;20039;-53
2023/06/02 05:51:28;;;;;;;22.20;15.85;;;;;;;17.12;90.00;97441.31;10330551;28;20486;-53
2023/06/02 05:56:27;;;;;;;20.13;15.48;;;;;;;17.38;89.01;97442.22;10330465;28;20543;-53
2023/06/02 06:01:28;;;;;;;16.13;13.45;;;;;;;17.55;85.82;97432.88;10328894;28;20036;-51
2023/06/02 06:06:27;;;;;;;17.60;13.23;;;;;;;17.73;86.61;97431.41;10321024;28;20152;-51
2023/06/02 06:11:26;;;;;;;17.08;13.00;;;;;;;17.86;85.16;97439.72;10323599;28;20116;-53
2023/06/02 06:16:25;;;;;;;15.75;11.65;;;;;;;18.07;84.23;97432.84;10329979;28;20124;-50
2023/06/02 06:21:24;;;;;;;14.57;10.77;;;;;;;18.33;82.16;97429.25;10330355;28;20124;-54
2023/06/02 06:26:23;;;;;;;14.45;11.30;;;;;;;18.49;80.41;97429.53;10327908;28;20056;-53
2023/06/02 06:31:24;;;;;;;17.02;10.55;;;;;;;18.64;79.99;97429.88;10324903;28;20047;-50
2023/06/02 06:36:22;;;;;;;17.70;9.63;;;;;;;18.77;79.11;97428.53;10317828;28;20776;-51
2023/06/02 06:41:22;;;;;;;12.38;8.88;;;;;;;19.09;77.10;97426.38;10326995;28;20112;-52
2023/06/02 06:46:21;;;;;;;19.63;9.00;;;;;;;18.73;73.50;97340.19;10320228;28;20128;-54
2023/06/02 06:51:21;;;;;;;11.88;7.25;;;;;;;19.54;68.96;97420.13;10321285;28;20115;-51
2023/06/02 06:56:21;;;;;;;11.45;7.60;;;;;;;19.54;69.86;97414.88;10313035;28;20694;-51
2023/06/02 07:01:20;;;;;;;11.27;7.18;;;;;;;19.71;66.38;97417.66;10328495;28;20141;-51
2023/06/02 07:06:19;;;;;;;11.70;7.80;;;;;;;19.96;64.20;97413.97;10322535;28;20116;-51
2023/06/02 07:11:18;;;;;;;11.52;7.45;;;;;;;20.42;66.22;97414.53;10323887;28;20068;-53
2023/06/02 07:16:17;;;;;;;13.10;8.07;;;;;;;20.61;63.67;97415.41;10325838;28;20108;-52
2023/06/02 07:21:16;;;;;;;12.38;7.68;;;;;;;21.11;62.02;97409.50;10320025;28;20124;-53
2023/06/02 07:26:15;;;;;;;14.07;6.78;;;;;;;21.66;60.67;97397.13;10322833;28;20045;-51
2023/06/02 07:31:14;;;;;;;11.07;6.85;;;;;;;22.39;55.43;97409.13;10320706;28;20221;-52
2023/06/02 07:36:13;;;;;;;13.95;7.05;;;;;;;22.88;53.87;97410.88;10324225;28;20069;-51
2023/06/02 07:41:12;;;;;;;11.02;6.55;;;;;;;23.46;52.89;97408.47;10322333;28;20108;-52
2023/06/02 07:46:11;;;;;;;10.10;6.15;;;;;;;23.81;50.71;97403.75;10326527;28;20154;-52
2023/06/02 07:51:10;;;;;;;10.82;6.60;;;;;;;24.23;52.57;97416.22;10329447;28;20041;-53
2023/06/02 07:56:09;;;;;;;10.65;6.85;;;;;;;24.64;53.54;97406.63;10327761;28;20037;-53
2023/06/02 08:01:08;;;;;;;8.38;6.45;;;;;;;24.85;51.00;97413.22;10326682;28;20120;-53
2023/06/02 08:06:07;;;;;;;14.60;6.57;;;;;;;24.87;50.94;97394.53;10328247;28;20049;-51
2023/06/02 08:11:06;;;;;;;13.45;6.88;;;;;;;24.99;53.46;97399.09;10336033;28;20192;-53
2023/06/02 08:16:06;;;;;;;10.35;6.53;;;;;;;25.52;50.90;97402.63;10330205;28;20152;-51
2023/06/02 08:21:05;;;;;;;16.98;7.25;;;;;;;25.79;49.93;97398.25;10336774;28;20069;-53
2023/06/02 08:26:04;;;;;;;9.13;6.72;;;;;;;26.20;50.28;97405.19;10337781;28;20084;-53
2023/06/02 08:31:04;;;;;;;10.15;6.63;;;;;;;26.33;48.16;97392.72;10334905;28;20116;-54
2023/06/02 08:36:06;;;;;;;9.07;5.60;;;;;;;26.42;40.35;97381.44;10336187;28;20072;-53
2023/06/02 08:41:10;;;;;;;7.60;5.28;;;;;;;26.88;39.32;97362.16;10335492;28;20120;-54
2023/06/02 08:46:14;;;;;;;8.32;5.07;;;;;;;27.22;37.24;97364.97;10335233;28;20568;-50
2023/06/02 08:51:36;;;;;;;8.98;5.38;;;;;;;27.49;37.16;97361.22;10334656;28;20076;-53
2023/06/02 08:56:35;;;;;;;7.97;4.88;;;;;;;27.86;37.18;97356.56;10334460;28;20069;-53
2023/06/02 09:01:34;;;;;;;7.38;5.05;;;;;;;27.99;37.71;97351.16;10323698;28;20064;-52
2023/06/02 09:06:33;;;;;;;9.75;5.57;;;;;;;27.72;39.21;97349.63;10334878;28;20077;-52
2023/06/02 09:11:32;;;;;;;7.20;5.00;;;;;;;27.89;34.42;97345.66;10333503;28;20108;-52
2023/06/02 09:16:40;;;;;;;6.60;5.00;;;;;;;28.53;33.38;97326.41;10334076;28;20097;-52
2023/06/02 09:21:39;;;;;;;;;;;;;;;28.33;34.60;97319.13;10334963;28;20084;-51
2023/06/02 09:26:38;;;;;;;7.07;5.22;;;;;;;27.54;35.19;97321.72;10332366;28;19917;-51
2023/06/02 09:31:52;;;;;;;9.77;5.53;;;;;;;27.25;36.42;97316.78;10330009;28;20052;-52
2023/06/02 09:36:53;;;;;;;7.45;4.70;;;;;;;26.92;35.88;97307.72;10327130;28;20108;-53
2023/06/02 09:41:53;;;;;;;7.63;5.30;;;;;;;26.26;37.18;97280.59;10330298;28;20072;-53
2023/06/02 09:46:53;;;;;;;9.70;6.00;;;;;;;26.13;40.45;97295.69;10329970;28;20487;-53
2023/06/02 09:51:52;;;;;;;8.43;5.20;;;;;;;25.81;38.31;97300.63;10331015;28;20049;-53
2023/06/02 09:56:51;;;;;;;7.45;5.53;;;;;;;25.74;38.55;97295.75;10328631;28;20475;-53
2023/06/02 10:01:50;;;;;;;8.98;5.35;;;;;;;25.76;38.16;97300.94;10328992;28;20543;-53
2023/06/02 10:07:19;;;;;;;8.00;5.50;;;;;;;25.70;38.34;97301.38;10328763;28;20124;-52
2023/06/02 10:12:54;;;;;;;8.43;5.13;;;;;;;25.80;37.32;97299.78;10328609;28;20542;-53
2023/06/02 10:18:34;;;;;;;8.88;5.22;;;;;;;25.94;38.06;97280.19;10327932;28;20080;-51
2023/06/02 10:23:58;;;;;;;8.40;5.15;;;;;;;26.30;38.84;97282.06;10326878;28;20087;-51
2023/06/02 10:29:02;;;;;;;6.93;5.00;;;;;;;26.61;36.77;97274.50;10327751;28;20156;-52
2023/06/02 10:34:01;;;;;;;8.60;5.07;;;;;;;26.54;36.48;97274.09;10327836;28;20056;-51
2023/06/02 10:39:40;;;;;;;6.43;5.38;;;;;;;26.84;36.51;97263.97;10317679;28;20531;-52
2023/06/02 10:44:39;;;;;;;8.35;5.38;;;;;;;26.94;37.78;97260.53;10317096;28;20132;-52
2023/06/02 10:49:58;;;;;;;7.93;5.07;;;;;;;27.22;35.35;97258.44;10326065;28;20080;-51
2023/06/02 10:55:14;;;;;;;10.70;5.50;;;;;;;27.64;37.00;97245.44;10324907;28;20069;-49
2023/06/02 11:00:54;;;;;;;8.68;5.15;;;;;;;27.89;36.45;97238.16;10325006;28;20124;-51
2023/06/02 11:05:51;;;;;;;6.82;5.20;;;;;;;27.76;36.14;97232.97;10326247;28;20083;-52
2023/06/02 11:10:50;;;;;;;9.25;5.28;;;;;;;27.84;36.54;97233.19;10326180;28;20125;-52
2023/06/02 11:15:56;;;;;;;12.35;5.63;;;;;;;28.29;37.00;97233.16;10326414;28;20068;-52
2023/06/02 11:21:17;;;;;;;6.55;5.10;;;;;;;28.37;34.79;97236.03;10318907;28;20124;-53
2023/06/02 11:26:19;;;;;;;7.82;5.00;;;;;;;28.31;34.34;97233.03;10325352;28;20076;-53
2023/06/02 11:31:19;;;;;;;6.80;4.78;;;;;;;28.51;33.94;97229.56;10323683;28;20081;-51
2023/06/02 11:36:25;;;;;;;6.95;4.90;;;;;;;28.66;33.93;97228.31;10321139;28;20116;-52
2023/06/02 11:41:25;;;;;;;7.80;4.80;;;;;;;28.15;32.18;97231.63;10323504;28;20125;-52
2023/06/02 11:46:23;;;;;;;7.72;5.15;;;;;;;28.17;34.87;97232.34;10318582;28;20459;-52
2023/06/02 11:51:23;;;;;;;8.23;4.80;;;;;;;27.83;33.99;97221.66;10325546;28;20581;-53
2023/06/02 11:56:22;;;;;;;9.00;5.05;;;;;;;27.68;35.33;97225.56;10327051;28;20527;-53
2023/06/02 12:01:21;;;;;;;8.70;5.30;;;;;;;27.89;35.30;97224.81;10327422;28;20544;-54
2023/06/02 12:06:21;;;;;;;6.25;4.80;;;;;;;28.08;35.49;97218.88;10327082;28;20121;-52
2023/06/02 12:11:23;;;;;;;6.55;5.13;;;;;;;28.20;34.83;97244.59;10328521;28;20088;-52
2023/06/02 12:16:26;;;;;;;7.30;4.65;;;;;;;27.65;37.68;97244.47;10328303;28;20095;-52
2023/06/02 12:22:05;;;;;;;8.00;5.35;;;;;;;27.72;40.21;97234.16;10337700;28;20076;-51
2023/06/02 12:27:08;;;;;;;13.75;6.13;;;;;;;28.16;40.63;97219.13;10322681;28;20072;-51
2023/06/02 12:32:07;;;;;;;10.93;5.70;;;;;;;28.36;40.45;97230.81;10324257;28;20072;-52
2023/06/02 12:37:06;;;;;;;8.93;5.68;;;;;;;28.85;40.63;97233.00;10324026;28;20073;-52
2023/06/02 12:42:06;;;;;;;8.85;5.30;;;;;;;29.63;39.77;97225.50;10324156;28;20081;-53
2023/06/02 12:47:06;;;;;;;7.00;5.32;;;;;;;28.98;39.41;97230.13;10323951;28;20077;-50
2023/06/02 12:52:05;;;;;;;7.70;5.05;;;;;;;28.28;40.51;97222.63;10323372;28;20069;-52
2023/06/02 12:57:04;;;;;;;8.80;5.53;;;;;;;27.67;41.24;97217.69;10331222;28;20061;-53
2023/06/02 13:02:04;;;;;;;7.22;4.53;;;;;;;27.57;39.98;97178.44;10331298;28;20065;-52
2023/06/02 13:07:04;;;;;;;8.57;5.18;;;;;;;27.75;40.76;97191.25;10331283;28;20129;-52
2023/06/02 13:12:04;;;;;;;8.82;5.47;;;;;;;27.80;39.31;97195.25;10331743;28;20546;-51
2023/06/02 13:17:05;;;;;;;9.45;5.72;;;;;;;27.85;38.68;97186.06;10331673;28;20076;-52
2023/06/02 13:22:04;;;;;;;7.97;5.03;;;;;;;27.62;38.28;97170.06;10330360;28;20077;-52
2023/06/02 13:27:03;;;;;;;9.05;5.18;;;;;;;28.14;39.40;97187.22;10330698;28;20069;-51
2023/06/02 13:32:03;;;;;;;8.02;5.65;;;;;;;28.35;39.00;97171.28;10330778;28;20060;-52
2023/06/02 13:37:02;;;;;;;7.90;4.72;;;;;;;28.66;35.77;97184.72;10331079;28;20053;-53
2023/06/02 13:42:01;;;;;;;8.63;5.40;;;;;;;28.87;37.45;97190.13;10329666;28;20537;-52
2023/06/02 13:47:00;;;;;;;7.75;5.75;;;;;;;28.84;37.73;97190.38;10329880;28;20485;-52
2023/06/02 13:51:59;;;;;;;10.60;5.13;;;;;;;28.32;38.50;97184.03;10329723;28;20029;-53
2023/06/02 13:56:58;;;;;;;6.95;5.05;;;;;;;28.15;38.15;97170.25;10326758;28;20103;-51
2023/06/02 14:01:57;;;;;;;6.30;4.72;;;;;;;27.58;39.22;97152.63;10326390;28;20482;-52
2023/06/02 14:06:56;;;;;;;8.70;4.68;;;;;;;27.16;40.23;97176.31;10328116;28;20125;-53
2023/06/02 14:11:55;;;;;;;5.78;4.90;;;;;;;26.74;40.29;97173.28;10329334;28;20041;-53
2023/06/02 14:16:54;;;;;;;7.72;5.20;;;;;;;26.90;41.60;97173.84;10327939;28;20072;-52
2023/06/02 14:21:53;;;;;;;8.13;4.70;;;;;;;26.95;40.82;97168.16;10328903;28;20084;-52
2023/06/02 14:26:52;;;;;;;7.53;5.20;;;;;;;26.78;41.82;97166.78;10327759;28;20045;-53
2023/06/02 14:31:52;;;;;;;7.47;5.20;;;;;;;26.94;41.66;97172.66;10328336;28;20040;-53
2023/06/02 14:36:51;;;;;;;8.90;5.22;;;;;;;26.89;41.59;97171.31;10326315;28;20057;-52
2023/06/02 14:41:50;;;;;;;8.80;5.28;;;;;;;26.77;43.25;97160.59;10327864;28;20145;-52
2023/06/02 14:46:49;;;;;;;9.95;7.43;;;;;;;26.99;42.72;97159.81;10326330;28;20037;-52
2023/06/02 14:51:48;;;;;;;11.57;9.73;;;;;;;26.48;43.18;97146.81;10326990;28;20495;-52
2023/06/02 14:56:47;;;;;;;8.70;7.15;;;;;;;26.71;43.48;97160.22;10326344;28;20072;-52
2023/06/02 15:01:46;;;;;;;7.07;5.20;;;;;;;26.30;43.65;97148.19;10326436;28;20033;-53
2023/06/02 15:06:46;;;;;;;8.30;4.78;;;;;;;25.96;43.82;97150.69;10325963;28;20040;-52
2023/06/02 15:11:45;;;;;;;8.75;5.47;;;;;;;25.93;44.99;97159.72;10316443;28;20136;-53
2023/06/02 15:16:44;;;;;;;9.77;5.10;;;;;;;26.00;45.60;97160.13;10312562;28;20025;-51
2023/06/02 15:21:43;;;;;;;8.93;5.10;;;;;;;25.55;46.58;97158.97;10323782;28;20112;-53
2023/06/02 15:26:42;;;;;;;8.23;5.60;;;;;;;25.49;46.67;97157.59;10322066;28;20041;-53
2023/06/02 15:31:41;;;;;;;8.68;5.22;;;;;;;25.37;47.83;97153.97;10324274;28;20021;-53
2023/06/02 15:36:40;;;;;;;9.07;5.72;;;;;;;25.57;48.56;97157.91;10323994;28;20068;-53
2023/06/02 15:41:40;;;;;;;7.53;5.18;;;;;;;25.51;48.46;97161.81;10323756;28;20128;-53
2023/06/02 15:46:39;;;;;;;8.93;5.63;;;;;;;25.47;47.78;97154.19;10321737;28;20544;-51
2023/06/02 15:51:38;;;;;;;10.93;6.35;;;;;;;25.59;49.12;97160.47;10323104;28;20222;-53
2023/06/02 15:56:37;;;;;;;17.02;8.05;;;;;;;25.69;49.65;97151.72;10324155;28;20033;-52
2023/06/02 16:01:36;;;;;;;13.20;6.72;;;;;;;25.86;50.08;97165.59;10324128;28;20112;-51
2023/06/02 16:06:36;;;;;;;13.00;7.28;;;;;;;25.84;49.82;97155.06;10322116;28;20470;-53
2023/06/02 16:11:38;;;;;;;13.75;6.72;;;;;;;25.94;50.17;97168.53;10319316;28;20128;-53
2023/06/02 16:16:37;;;;;;;10.23;5.97;;;;;;;25.97;50.83;97173.63;10321917;28;20121;-51
2023/06/02 16:21:37;;;;;;;15.65;6.97;;;;;;;26.00;51.70;97176.09;10323976;28;20148;-51
2023/06/02 16:26:35;;;;;;;10.35;6.40;;;;;;;26.00;51.67;97175.25;10323039;28;20599;-51
2023/06/02 16:31:34;;;;;;;11.45;7.50;;;;;;;25.84;50.54;97164.88;10332123;28;20033;-51
2023/06/02 16:36:33;;;;;;;11.10;6.65;;;;;;;25.87;51.40;97175.28;10330732;28;20391;-51
2023/06/02 16:41:32;;;;;;;11.65;6.63;;;;;;;25.86;51.80;97181.56;10332157;28;20033;-51
2023/06/02 16:46:31;;;;;;;10.20;6.00;;;;;;;25.78;51.89;97184.75;10330868;28;20033;-51
2023/06/02 16:51:30;;;;;;;10.05;6.63;;;;;;;25.77;51.57;97184.88;10331352;28;20423;-52
2023/06/02 16:56:32;;;;;;;12.40;7.05;;;;;;;25.67;51.51;97188.19;10330541;28;20026;-52
2023/06/02 17:01:31;;;;;;;10.98;6.78;;;;;;;25.46;51.90;97168.44;10328050;28;20152;-52
2023/06/02 17:06:31;;;;;;;11.65;7.50;;;;;;;25.29;54.48;97188.19;10329727;28;20124;-52
2023/06/02 17:11:30;;;;;;;14.90;7.50;;;;;;;25.12;56.05;97186.72;10329892;28;20277;-52
2023/06/02 17:16:29;;;;;;;12.18;8.00;;;;;;;25.04;57.11;97202.31;10330310;28;20475;-52
2023/06/02 17:21:28;;;;;;;33.63;9.20;;;;;;;24.90;57.50;97187.34;10328924;28;20468;-50
2023/06/02 17:26:27;;;;;;;16.17;8.50;;;;;;;24.82;57.64;97193.13;10329397;28;20108;-51
2023/06/02 17:31:26;;;;;;;13.27;7.90;;;;;;;24.76;57.81;97203.31;10327811;28;20073;-51
2023/06/02 17:36:25;;;;;;;12.23;7.70;;;;;;;24.54;58.36;97209.19;10328427;28;20367;-51
2023/06/02 17:41:24;;;;;;;14.07;7.53;;;;;;;24.41;59.13;97209.16;10327290;28;20037;-52
2023/06/02 17:46:26;;;;;;;16.10;8.68;;;;;;;24.21;59.36;97203.34;10328301;28;20112;-52
2023/06/02 17:51:27;;;;;;;12.52;8.30;;;;;;;24.01;59.60;97204.63;10327642;28;20140;-52
2023/06/02 17:56:26;;;;;;;12.30;7.80;;;;;;;23.75;60.53;97208.09;10329646;28;20184;-53
2023/06/02 18:01:25;;;;;;;13.95;8.90;;;;;;;23.50;61.01;97209.59;10328561;28;20133;-54
2023/06/02 18:06:24;;;;;;;35.38;25.52;;;;;;;23.30;61.93;97212.59;10326622;28;20038;-53
2023/06/02 18:11:23;;;;;;;28.73;24.08;;;;;;;23.02;62.72;97220.41;10327462;28;20132;-53
2023/06/02 18:16:22;;;;;;;21.33;15.82;;;;;;;22.84;62.79;97225.94;10328106;28;20038;-53
2023/06/02 18:21:21;;;;;;;16.95;10.75;;;;;;;22.71;63.39;97237.19;10327986;28;20052;-52
2023/06/02 18:26:20;;;;;;;11.48;7.88;;;;;;;22.62;63.29;97242.16;10327514;28;20040;-51
2023/06/02 18:31:20;;;;;;;11.70;6.65;;;;;;;22.25;60.97;97229.28;10326396;28;20035;-52
2023/06/02 18:36:20;;;;;;;9.07;6.13;;;;;;;22.18;56.29;97254.34;10325365;28;20128;-51
2023/06/02 18:41:19;;;;;;;7.97;5.40;;;;;;;21.88;53.59;97268.28;10325985;28;20513;-51
2023/06/02 18:46:18;;;;;;;9.95;5.82;;;;;;;21.61;52.51;97285.59;10320698;28;20546;-50
2023/06/02 18:51:17;;;;;;;12.13;5.82;;;;;;;21.44;52.79;97286.50;10326515;28;20057;-52
2023/06/02 18:56:16;;;;;;;10.90;5.25;;;;;;;21.24;53.11;97276.97;10326311;28;20682;-52
2023/06/02 19:01:15;;;;;;;7.97;5.85;;;;;;;20.77;56.74;97290.75;10326297;28;20439;-52
2023/06/02 19:06:14;;;;;;;9.75;5.60;;;;;;;20.29;59.15;97298.28;10326780;28;20126;-53
2023/06/02 19:11:13;;;;;;;8.25;5.75;;;;;;;19.90;61.85;97306.25;10326013;28;20060;-52
2023/06/02 19:16:12;;;;;;;15.40;7.07;;;;;;;19.65;67.44;97318.75;10325864;28;20029;-52
2023/06/02 19:21:11;;;;;;;10.63;7.53;;;;;;;19.16;73.83;97314.75;10325941;28;20080;-53
2023/06/02 19:26:10;;;;;;;9.70;6.80;;;;;;;18.81;76.26;97330.22;10326037;28;20111;-51
2023/06/02 19:31:09;;;;;;;12.15;8.00;;;;;;;18.68;78.58;97340.38;10324716;28;20033;-53
2023/06/02 19:36:08;;;;;;;11.25;7.57;;;;;;;18.37;81.25;97354.69;10323878;28;20404;-52
2023/06/02 19:41:07;;;;;;;11.48;7.63;;;;;;;17.85;82.06;97284.94;10326257;28;20432;-51
2023/06/02 19:46:06;;;;;;;10.93;7.55;;;;;;;18.30;82.16;97386.50;10324455;28;20124;-52
2023/06/02 19:51:05;;;;;;;10.05;6.75;;;;;;;18.18;77.45;97387.81;10323695;28;20463;-50
2023/06/02 19:56:05;;;;;;;10.27;6.82;;;;;;;18.30;78.36;97384.72;10325007;28;20112;-52
2023/06/02 20:01:05;;;;;;;9.27;6.55;;;;;;;18.46;77.62;97382.38;10324963;28;20077;-52
2023/06/02 20:06:04;;;;;;;8.98;6.60;;;;;;;18.57;76.56;97380.19;10324125;28;20136;-51
2023/06/02 20:11:03;;;;;;;9.25;6.95;;;;;;;18.56;77.72;97362.69;10324733;28;20103;-53
2023/06/02 20:16:02;;;;;;;9.02;6.38;;;;;;;18.67;77.86;97364.91;10321808;28;20084;-51
2023/06/02 20:21:01;;;;;;;9.55;6.10;;;;;;;18.58;78.24;97366.13;10322257;28;20120;-50
2023/06/02 20:26:00;;;;;;;10.52;6.53;;;;;;;18.56;77.80;97369.72;10323524;28;20040;-52
2023/06/02 20:30:59;;;;;;;10.40;6.55;;;;;;;18.61;78.12;97370.41;10324441;28;20033;-50
2023/06/02 20:36:00;;;;;;;8.88;6.18;;;;;;;18.41;78.23;97368.56;10324252;28;20077;-53
2023/06/02 20:41:00;;;;;;;12.60;8.38;;;;;;;17.69;87.02;97394.84;10323868;28;20528;-50
2023/06/02 20:45:59;;;;;;;13.70;8.90;;;;;;;17.46;89.58;97399.09;10324313;28;20474;-50
2023/06/02 20:50:57;;;;;;;16.35;9.55;;;;;;;17.10;92.22;97403.81;10324364;28;20415;-53
2023/06/02 20:55:56;;;;;;;14.10;10.90;;;;;;;16.88;93.66;97414.97;10324514;28;20032;-51
2023/06/02 21:00:55;;;;;;;17.13;10.82;;;;;;;16.78;96.90;97405.69;10323940;28;20116;-51
2023/06/02 21:05:55;;;;;;;19.92;11.30;;;;;;;16.19;97.77;97413.59;10323429;28;20033;-52
2023/06/02 21:10:53;;;;;;;16.40;11.57;;;;;;;15.93;100.00;97430.00;10321182;28;20080;-50
2023/06/02 21:15:52;;;;;;;17.77;12.13;;;;;;;15.86;100.00;97439.81;10326502;28;20041;-50
2023/06/02 21:20:51;;;;;;;;;;;;;;;15.92;100.00;97449.22;10331411;28;20035;-52
2023/06/02 21:25:53;;;;;;;19.90;12.43;;;;;;;15.64;100.00;97415.94;10331467;28;20019;-49
2023/06/02 21:30:52;;;;;;;19.65;13.85;;;;;;;15.79;100.00;97459.19;10330245;28;20068;-50
2023/06/02 21:35:51;;;;;;;20.75;14.70;;;;;;;15.57;100.00;97433.53;10330251;28;20029;-49
2023/06/02 21:40:50;;;;;;;;;;;;;;;15.85;100.00;97479.94;10330373;28;20125;-50
2023/06/02 21:45:49;;;;;;;20.50;14.97;;;;;;;15.91;100.00;97479.78;10330136;28;20470;-49
2023/06/02 21:50:48;;;;;;;22.35;16.58;;;;;;;15.99;100.00;97483.03;10329001;28;20099;-51
2023/06/02 21:55:47;;;;;;;20.65;15.38;;;;;;;16.11;100.00;97471.38;10329122;28;20043;-52
2023/06/02 22:00:46;;;;;;;;;;;;;;;16.18;100.00;97477.31;10330074;28;20033;-50
2023/06/02 22:05:45;;;;;;;19.53;14.87;;;;;;;16.24;100.00;97471.91;10328871;28;19925;-49
2023/06/02 22:10:43;;;;;;;21.00;15.27;;;;;;;16.26;100.00;97470.09;10327548;28;20045;-51
2023/06/02 22:15:43;;;;;;;23.42;16.20;;;;;;;16.26;100.00;97459.63;10327902;28;20039;-50
2023/06/02 22:20:42;;;;;;;24.30;16.17;;;;;;;16.34;100.00;97464.66;10325444;28;20560;-51
2023/06/02 22:25:41;;;;;;;21.25;15.10;;;;;;;16.37;100.00;97461.94;10322470;28;20488;-49
2023/06/02 22:30:40;;;;;;;20.95;14.27;;;;;;;16.29;100.00;97443.81;10325664;28;20029;-49
2023/06/02 22:35:38;;;;;;;16.17;13.38;;;;;;;16.23;100.00;97444.00;10327180;28;20068;-51
2023/06/02 22:40:37;;;;;;;18.67;13.95;;;;;;;16.28;100.00;97452.59;10327337;28;20033;-52
2023/06/02 22:45:36;;;;;;;23.08;15.60;;;;;;;16.28;100.00;97444.75;10327879;28;20033;-49
2023/06/02 22:50:35;;;;;;;17.40;13.05;;;;;;;16.28;100.00;97444.75;10327331;28;20690;-51
2023/06/02 22:55:34;;;;;;;26.13;17.95;;;;;;;16.18;100.00;97417.09;10326772;28;20435;-50
2023/06/02 23:00:33;;;;;;;24.33;17.25;;;;;;;16.13;100.00;97435.53;10327123;28;20073;-49